sensor_id;sensor_type;location;lat;lon;timestamp;temperature;humidity
15676;DHT22;7938;47.666;9.434;2023-03-15T05:02:13;-0.90;99.90
15676;DHT22;7938;47.666;9.434;2023-03-15T05:04:40;-0.90;99.90
15676;DHT22;7938;47.666;9.434;2023-03-15T05:07:07;-1.00;99.90
15676;DHT22;7938;47.666;9.434;2023-03-15T05:09:34;-0.90;99.90
15676;DHT22;7938;47.666;9.434;2023-03-15T05:12:03;-0.90;99.90
15676;DHT22;7938;47.666;9.434;2023-03-15T05:14:30;-0.90;99.90
15676;DHT22;7938;47.666;9.434;2023-03-15T05:16:57;-0.90;99.90
15676;DHT22;7938;47.666;9.434;2023-03-15T05:19:25;-1.00;99.90
15676;DHT22;7938;47.666;9.434;2023-03-15T05:21:52;-1.00;99.90
15676;DHT22;7938;47.666;9.434;2023-03-15T05:24:20;-1.00;99.90
15676;DHT22;7938;47.666;9.434;2023-03-15T05:26:48;-1.00;99.90
15676;DHT22;7938;47.666;9.434;2023-03-15T05:29:19;-1.10;99.90
15676;DHT22;7938;47.666;9.434;2023-03-15T05:31:46;-1.10;99.90
15676;DHT22;7938;47.666;9.434;2023-03-15T05:34:13;-1.10;99.90
15676;DHT22;7938;47.666;9.434;2023-03-15T05:36:41;-1.20;99.90
15676;DHT22;7938;47.666;9.434;2023-03-15T05:39:08;-1.20;99.90
15676;DHT22;7938;47.666;9.434;2023-03-15T05:41:36;-1.20;99.90
15676;DHT22;7938;47.666;9.434;2023-03-15T05:44:03;-1.10;99.90
15676;DHT22;7938;47.666;9.434;2023-03-15T05:46:30;-1.20;99.90
15676;DHT22;7938;47.666;9.434;2023-03-15T05:48:57;-1.20;99.90
15676;DHT22;7938;47.666;9.434;2023-03-15T05:51:24;-1.10;99.90
15676;DHT22;7938;47.666;9.434;2023-03-15T05:53:52;-1.10;99.90
15676;DHT22;7938;47.666;9.434;2023-03-15T05:56:19;-0.90;99.90
15676;DHT22;7938;47.666;9.434;2023-03-15T05:58:46;-0.80;99.90
15676;DHT22;7938;47.666;9.434;2023-03-15T06:01:13;-0.80;99.90
15676;DHT22;7938;47.666;9.434;2023-03-15T06:03:40;-0.70;99.90
15676;DHT22;7938;47.666;9.434;2023-03-15T06:06:06;-0.60;99.90
15676;DHT22;7938;47.666;9.434;2023-03-15T06:08:33;-0.60;99.90
15676;DHT22;7938;47.666;9.434;2023-03-15T06:11:02;-0.50;99.90
15676;DHT22;7938;47.666;9.434;2023-03-15T06:13:28;-0.50;99.90
15676;DHT22;7938;47.666;9.434;2023-03-15T06:15:55;-0.40;99.90
15676;DHT22;7938;47.666;9.434;2023-03-15T06:18:22;-0.40;99.90
15676;DHT22;7938;47.666;9.434;2023-03-15T06:20:49;-0.40;99.90
15676;DHT22;7938;47.666;9.434;2023-03-15T06:23:16;-0.40;99.90
15676;DHT22;7938;47.666;9.434;2023-03-15T06:25:43;-0.30;99.90
15676;DHT22;7938;47.666;9.434;2023-03-15T06:28:11;-0.10;99.90
15676;DHT22;7938;47.666;9.434;2023-03-15T06:30:38;0.00;99.90
15676;DHT22;7938;47.666;9.434;2023-03-15T06:33:05;0.00;99.90
15676;DHT22;7938;47.666;9.434;2023-03-15T06:35:32;-0.10;99.90
15676;DHT22;7938;47.666;9.434;2023-03-15T06:37:59;-0.10;99.90
15676;DHT22;7938;47.666;9.434;2023-03-15T06:40:26;-0.10;99.90
15676;DHT22;7938;47.666;9.434;2023-03-15T06:42:52;-0.10;99.90
15676;DHT22;7938;47.666;9.434;2023-03-15T06:45:21;-0.10;99.90
15676;DHT22;7938;47.666;9.434;2023-03-15T06:47:48;0.00;99.90
15676;DHT22;7938;47.666;9.434;2023-03-15T06:50:15;0.00;99.90
15676;DHT22;7938;47.666;9.434;2023-03-15T06:52:42;0.10;99.90
15676;DHT22;7938;47.666;9.434;2023-03-15T06:55:09;0.20;99.90
15676;DHT22;7938;47.666;9.434;2023-03-15T06:57:37;0.20;99.90
15676;DHT22;7938;47.666;9.434;2023-03-15T07:00:04;0.30;99.90
15676;DHT22;7938;47.666;9.434;2023-03-15T07:02:37;0.40;99.90
15676;DHT22;7938;47.666;9.434;2023-03-15T07:05:04;0.40;99.90
15676;DHT22;7938;47.666;9.434;2023-03-15T07:07:31;0.50;99.90
15676;DHT22;7938;47.666;9.434;2023-03-15T07:09:58;0.60;99.90
15676;DHT22;7938;47.666;9.434;2023-03-15T07:12:25;0.70;99.90
15676;DHT22;7938;47.666;9.434;2023-03-15T07:14:52;0.80;99.90
15676;DHT22;7938;47.666;9.434;2023-03-15T07:17:19;0.90;99.90
15676;DHT22;7938;47.666;9.434;2023-03-15T07:19:47;1.10;99.90
15676;DHT22;7938;47.666;9.434;2023-03-15T07:22:14;1.40;99.90
15676;DHT22;7938;47.666;9.434;2023-03-15T07:24:40;1.40;99.90
15676;DHT22;7938;47.666;9.434;2023-03-15T07:27:11;1.40;99.90
15676;DHT22;7938;47.666;9.434;2023-03-15T07:29:38;1.50;99.90
15676;DHT22;7938;47.666;9.434;2023-03-15T07:32:06;1.60;99.90
15676;DHT22;7938;47.666;9.434;2023-03-15T07:34:33;1.70;99.90
15676;DHT22;7938;47.666;9.434;2023-03-15T07:37:01;1.80;99.90
15676;DHT22;7938;47.666;9.434;2023-03-15T07:39:28;2.00;99.90
15676;DHT22;7938;47.666;9.434;2023-03-15T07:41:57;2.10;99.90
15676;DHT22;7938;47.666;9.434;2023-03-15T07:44:24;2.10;99.90
15676;DHT22;7938;47.666;9.434;2023-03-15T07:46:51;2.20;99.90
15676;DHT22;7938;47.666;9.434;2023-03-15T07:49:19;2.30;99.90
15676;DHT22;7938;47.666;9.434;2023-03-15T07:51:46;2.40;99.90
15676;DHT22;7938;47.666;9.434;2023-03-15T07:54:14;2.50;99.90
15676;DHT22;7938;47.666;9.434;2023-03-15T07:56:41;2.50;99.90
15676;DHT22;7938;47.666;9.434;2023-03-15T07:59:08;2.60;99.90
15676;DHT22;7938;47.666;9.434;2023-03-15T08:01:35;2.80;99.90
15676;DHT22;7938;47.666;9.434;2023-03-15T08:04:02;2.90;99.90
15676;DHT22;7938;47.666;9.434;2023-03-15T08:06:29;3.00;99.90
15676;DHT22;7938;47.666;9.434;2023-03-15T08:08:56;3.00;99.90
15676;DHT22;7938;47.666;9.434;2023-03-15T08:11:27;3.10;99.90
15676;DHT22;7938;47.666;9.434;2023-03-15T08:13:54;3.10;99.90
15676;DHT22;7938;47.666;9.434;2023-03-15T08:16:21;3.20;99.90
15676;DHT22;7938;47.666;9.434;2023-03-15T08:18:47;3.20;99.90
15676;DHT22;7938;47.666;9.434;2023-03-15T08:21:14;3.30;99.90
15676;DHT22;7938;47.666;9.434;2023-03-15T08:23:41;3.40;99.90
15676;DHT22;7938;47.666;9.434;2023-03-15T08:26:08;3.50;99.90
15676;DHT22;7938;47.666;9.434;2023-03-15T08:28:36;3.40;99.90
15676;DHT22;7938;47.666;9.434;2023-03-15T08:31:05;3.50;99.90
15676;DHT22;7938;47.666;9.434;2023-03-15T08:33:33;3.60;99.90
15676;DHT22;7938;47.666;9.434;2023-03-15T08:36:00;3.60;99.90
15676;DHT22;7938;47.666;9.434;2023-03-15T08:38:27;3.50;99.90
15676;DHT22;7938;47.666;9.434;2023-03-15T08:40:57;3.50;99.90
15676;DHT22;7938;47.666;9.434;2023-03-15T08:43:24;3.60;99.90
15676;DHT22;7938;47.666;9.434;2023-03-15T08:45:52;3.50;99.90
15676;DHT22;7938;47.666;9.434;2023-03-15T08:48:19;3.70;99.90
15676;DHT22;7938;47.666;9.434;2023-03-15T08:50:46;3.60;99.90
15676;DHT22;7938;47.666;9.434;2023-03-15T08:53:13;3.60;99.90
15676;DHT22;7938;47.666;9.434;2023-03-15T08:55:40;3.70;99.90
15676;DHT22;7938;47.666;9.434;2023-03-15T08:58:07;3.70;99.90
15676;DHT22;7938;47.666;9.434;2023-03-15T09:00:34;3.60;99.90
15676;DHT22;7938;47.666;9.434;2023-03-15T09:03:03;3.50;99.90
15676;DHT22;7938;47.666;9.434;2023-03-15T09:05:30;3.60;99.90
15676;DHT22;7938;47.666;9.434;2023-03-15T09:07:57;3.70;99.90
15676;DHT22;7938;47.666;9.434;2023-03-15T09:10:25;3.80;99.90
15676;DHT22;7938;47.666;9.434;2023-03-15T09:12:52;3.80;99.90
15676;DHT22;7938;47.666;9.434;2023-03-15T09:15:19;3.70;99.90
15676;DHT22;7938;47.666;9.434;2023-03-15T09:17:48;3.80;99.90
15676;DHT22;7938;47.666;9.434;2023-03-15T09:20:18;4.30;99.90
15676;DHT22;7938;47.666;9.434;2023-03-15T09:22:50;3.80;99.90
15676;DHT22;7938;47.666;9.434;2023-03-15T09:25:18;4.00;99.90
15676;DHT22;7938;47.666;9.434;2023-03-15T09:27:45;4.10;99.90
15676;DHT22;7938;47.666;9.434;2023-03-15T09:30:12;3.80;99.90
15676;DHT22;7938;47.666;9.434;2023-03-15T09:32:39;4.30;99.90
15676;DHT22;7938;47.666;9.434;2023-03-15T09:35:11;4.50;99.90
15676;DHT22;7938;47.666;9.434;2023-03-15T09:37:40;4.60;99.90
15676;DHT22;7938;47.666;9.434;2023-03-15T09:40:14;4.70;99.90
15676;DHT22;7938;47.666;9.434;2023-03-15T09:42:54;4.80;99.90
15676;DHT22;7938;47.666;9.434;2023-03-15T09:45:30;4.80;99.90
15676;DHT22;7938;47.666;9.434;2023-03-15T09:48:03;5.10;99.90
15676;DHT22;7938;47.666;9.434;2023-03-15T09:50:33;5.20;99.90
15676;DHT22;7938;47.666;9.434;2023-03-15T09:53:05;5.20;99.90
15676;DHT22;7938;47.666;9.434;2023-03-15T09:55:34;5.30;99.90
15676;DHT22;7938;47.666;9.434;2023-03-15T09:58:03;5.30;99.90
15676;DHT22;7938;47.666;9.434;2023-03-15T10:00:36;5.50;99.90
15676;DHT22;7938;47.666;9.434;2023-03-15T10:03:04;5.40;99.90
15676;DHT22;7938;47.666;9.434;2023-03-15T10:05:39;5.30;99.90
15676;DHT22;7938;47.666;9.434;2023-03-15T10:08:13;5.40;99.90
15676;DHT22;7938;47.666;9.434;2023-03-15T10:10:48;5.50;99.90
15676;DHT22;7938;47.666;9.434;2023-03-15T10:13:26;5.50;99.90
15676;DHT22;7938;47.666;9.434;2023-03-15T10:16:02;5.60;99.90
15676;DHT22;7938;47.666;9.434;2023-03-15T10:18:44;5.70;99.90
15676;DHT22;7938;47.666;9.434;2023-03-15T10:21:20;5.80;99.90
15676;DHT22;7938;47.666;9.434;2023-03-15T10:23:53;5.80;99.90
15676;DHT22;7938;47.666;9.434;2023-03-15T10:26:24;5.80;99.90
15676;DHT22;7938;47.666;9.434;2023-03-15T10:28:54;5.90;99.90
15676;DHT22;7938;47.666;9.434;2023-03-15T10:31:24;6.10;99.90
15676;DHT22;7938;47.666;9.434;2023-03-15T10:33:52;6.10;99.90
15676;DHT22;7938;47.666;9.434;2023-03-15T10:36:22;6.10;99.90
15676;DHT22;7938;47.666;9.434;2023-03-15T10:38:49;6.20;99.90
15676;DHT22;7938;47.666;9.434;2023-03-15T10:41:29;6.20;99.90
15676;DHT22;7938;47.666;9.434;2023-03-15T10:43:59;6.30;99.90
15676;DHT22;7938;47.666;9.434;2023-03-15T10:46:26;6.30;99.90
15676;DHT22;7938;47.666;9.434;2023-03-15T10:48:57;6.30;99.90
15676;DHT22;7938;47.666;9.434;2023-03-15T10:51:26;6.40;99.90
15676;DHT22;7938;47.666;9.434;2023-03-15T10:53:55;6.30;99.90
15676;DHT22;7938;47.666;9.434;2023-03-15T10:56:25;6.30;99.90
15676;DHT22;7938;47.666;9.434;2023-03-15T10:58:54;6.30;99.90
15676;DHT22;7938;47.666;9.434;2023-03-15T11:01:24;6.40;99.90
15676;DHT22;7938;47.666;9.434;2023-03-15T11:04:01;6.50;99.90
15676;DHT22;7938;47.666;9.434;2023-03-15T11:06:28;6.50;99.90
15676;DHT22;7938;47.666;9.434;2023-03-15T11:09:07;6.60;99.90
15676;DHT22;7938;47.666;9.434;2023-03-15T11:11:51;6.60;99.80
15676;DHT22;7938;47.666;9.434;2023-03-15T11:14:20;6.60;99.90
15676;DHT22;7938;47.666;9.434;2023-03-15T11:16:48;6.70;99.90
15676;DHT22;7938;47.666;9.434;2023-03-15T11:19:17;6.90;99.20
15676;DHT22;7938;47.666;9.434;2023-03-15T11:21:46;7.00;99.80
15676;DHT22;7938;47.666;9.434;2023-03-15T11:24:23;7.10;99.70
15676;DHT22;7938;47.666;9.434;2023-03-15T11:26:51;7.10;99.30
15676;DHT22;7938;47.666;9.434;2023-03-15T11:29:24;7.10;99.70
15676;DHT22;7938;47.666;9.434;2023-03-15T11:31:52;7.20;98.70
15676;DHT22;7938;47.666;9.434;2023-03-15T11:34:38;7.20;98.70
15676;DHT22;7938;47.666;9.434;2023-03-15T11:37:14;7.20;98.90
15676;DHT22;7938;47.666;9.434;2023-03-15T11:39:44;7.40;99.20
15676;DHT22;7938;47.666;9.434;2023-03-15T11:42:17;7.40;97.90
15676;DHT22;7938;47.666;9.434;2023-03-15T11:44:48;7.40;97.80
15676;DHT22;7938;47.666;9.434;2023-03-15T11:47:27;7.40;97.60
15676;DHT22;7938;47.666;9.434;2023-03-15T11:50:04;7.40;96.50
15676;DHT22;7938;47.666;9.434;2023-03-15T11:52:31;7.30;96.60
15676;DHT22;7938;47.666;9.434;2023-03-15T11:55:00;7.30;97.50
15676;DHT22;7938;47.666;9.434;2023-03-15T11:57:37;7.30;96.40
15676;DHT22;7938;47.666;9.434;2023-03-15T12:03:41;7.40;96.00
15676;DHT22;7938;47.666;9.434;2023-03-15T12:06:34;7.50;96.60
15676;DHT22;7938;47.666;9.434;2023-03-15T12:09:37;7.50;95.00
15676;DHT22;7938;47.666;9.434;2023-03-15T12:12:33;7.50;94.50
15676;DHT22;7938;47.666;9.434;2023-03-15T12:15:01;7.50;93.90
15676;DHT22;7938;47.666;9.434;2023-03-15T12:17:38;7.80;95.80
15676;DHT22;7938;47.666;9.434;2023-03-15T12:20:16;8.00;93.80
15676;DHT22;7938;47.666;9.434;2023-03-15T12:22:49;7.90;93.80
15676;DHT22;7938;47.666;9.434;2023-03-15T12:25:21;7.90;93.80
15676;DHT22;7938;47.666;9.434;2023-03-15T12:27:50;7.90;93.70
15676;DHT22;7938;47.666;9.434;2023-03-15T12:30:21;8.10;94.70
15676;DHT22;7938;47.666;9.434;2023-03-15T12:32:52;8.10;94.20
15676;DHT22;7938;47.666;9.434;2023-03-15T12:35:21;8.40;94.40
15676;DHT22;7938;47.666;9.434;2023-03-15T12:37:51;8.30;91.90
15676;DHT22;7938;47.666;9.434;2023-03-15T12:40:37;8.30;92.30
15676;DHT22;7938;47.666;9.434;2023-03-15T12:43:05;8.20;92.80
15676;DHT22;7938;47.666;9.434;2023-03-15T12:45:50;8.30;93.30
15676;DHT22;7938;47.666;9.434;2023-03-15T12:48:22;8.30;91.60
15676;DHT22;7938;47.666;9.434;2023-03-15T12:50:52;8.40;92.50
15676;DHT22;7938;47.666;9.434;2023-03-15T12:53:26;8.40;92.50
15676;DHT22;7938;47.666;9.434;2023-03-15T12:55:55;8.40;92.20
15676;DHT22;7938;47.666;9.434;2023-03-15T12:58:28;8.50;91.00
15676;DHT22;7938;47.666;9.434;2023-03-15T13:01:00;8.50;91.20
15676;DHT22;7938;47.666;9.434;2023-03-15T13:03:28;8.50;91.20
15676;DHT22;7938;47.666;9.434;2023-03-15T13:06:03;8.60;91.70
15676;DHT22;7938;47.666;9.434;2023-03-15T13:08:37;8.70;91.90
15676;DHT22;7938;47.666;9.434;2023-03-15T13:11:16;8.90;90.80
15676;DHT22;7938;47.666;9.434;2023-03-15T13:14:16;9.00;90.20
15676;DHT22;7938;47.666;9.434;2023-03-15T13:16:50;8.70;90.50
15676;DHT22;7938;47.666;9.434;2023-03-15T13:19:21;8.50;87.60
15676;DHT22;7938;47.666;9.434;2023-03-15T13:22:00;8.60;90.80
15676;DHT22;7938;47.666;9.434;2023-03-15T13:24:37;8.70;88.00
15676;DHT22;7938;47.666;9.434;2023-03-15T13:27:12;8.80;88.10
15676;DHT22;7938;47.666;9.434;2023-03-15T13:29:43;8.80;87.30
15676;DHT22;7938;47.666;9.434;2023-03-15T13:32:15;8.90;88.00
15676;DHT22;7938;47.666;9.434;2023-03-15T13:34:44;8.80;85.90
15676;DHT22;7938;47.666;9.434;2023-03-15T13:37:15;8.80;86.30
15676;DHT22;7938;47.666;9.434;2023-03-15T13:39:56;8.90;86.30
15676;DHT22;7938;47.666;9.434;2023-03-15T13:42:23;9.00;83.60
15676;DHT22;7938;47.666;9.434;2023-03-15T13:45:11;8.80;82.70
15676;DHT22;7938;47.666;9.434;2023-03-15T13:47:39;8.70;83.70
15676;DHT22;7938;47.666;9.434;2023-03-15T13:50:10;8.90;84.50
15676;DHT22;7938;47.666;9.434;2023-03-15T13:52:39;9.00;82.60
15676;DHT22;7938;47.666;9.434;2023-03-15T13:55:11;9.20;81.70
15676;DHT22;7938;47.666;9.434;2023-03-15T13:57:38;9.10;83.80
15676;DHT22;7938;47.666;9.434;2023-03-15T14:00:09;9.20;85.00
15676;DHT22;7938;47.666;9.434;2023-03-15T14:02:42;9.30;84.40
15676;DHT22;7938;47.666;9.434;2023-03-15T14:05:12;9.30;81.80
15676;DHT22;7938;47.666;9.434;2023-03-15T14:07:40;9.40;81.80
15676;DHT22;7938;47.666;9.434;2023-03-15T14:10:23;9.50;80.30
15676;DHT22;7938;47.666;9.434;2023-03-15T14:12:51;9.50;80.80
15676;DHT22;7938;47.666;9.434;2023-03-15T14:15:20;9.50;80.80
15676;DHT22;7938;47.666;9.434;2023-03-15T14:17:57;9.50;82.50
15676;DHT22;7938;47.666;9.434;2023-03-15T14:20:27;9.70;79.50
15676;DHT22;7938;47.666;9.434;2023-03-15T14:22:59;9.60;79.50
15676;DHT22;7938;47.666;9.434;2023-03-15T14:25:30;9.70;80.30
15676;DHT22;7938;47.666;9.434;2023-03-15T14:27:59;9.80;79.10
15676;DHT22;7938;47.666;9.434;2023-03-15T14:30:28;9.90;78.50
15676;DHT22;7938;47.666;9.434;2023-03-15T14:32:59;9.80;78.60
15676;DHT22;7938;47.666;9.434;2023-03-15T14:35:30;9.90;78.50
15676;DHT22;7938;47.666;9.434;2023-03-15T14:38:05;10.10;79.00
15676;DHT22;7938;47.666;9.434;2023-03-15T14:40:35;10.20;76.40
15676;DHT22;7938;47.666;9.434;2023-03-15T14:43:04;10.20;76.70
15676;DHT22;7938;47.666;9.434;2023-03-15T14:45:32;10.20;81.20
15676;DHT22;7938;47.666;9.434;2023-03-15T14:48:03;10.40;79.00
15676;DHT22;7938;47.666;9.434;2023-03-15T14:50:35;10.40;76.10
15676;DHT22;7938;47.666;9.434;2023-03-15T14:53:04;10.40;77.00
15676;DHT22;7938;47.666;9.434;2023-03-15T14:55:35;10.30;76.00
15676;DHT22;7938;47.666;9.434;2023-03-15T14:58:03;10.40;76.40
15676;DHT22;7938;47.666;9.434;2023-03-15T15:00:35;10.50;79.80
15676;DHT22;7938;47.666;9.434;2023-03-15T15:03:02;10.50;79.20
15676;DHT22;7938;47.666;9.434;2023-03-15T15:05:32;10.40;79.40
15676;DHT22;7938;47.666;9.434;2023-03-15T15:08:03;10.60;74.40
15676;DHT22;7938;47.666;9.434;2023-03-15T15:10:33;10.80;75.40
15676;DHT22;7938;47.666;9.434;2023-03-15T15:13:00;10.80;75.90
15676;DHT22;7938;47.666;9.434;2023-03-15T15:15:27;11.40;74.50
15676;DHT22;7938;47.666;9.434;2023-03-15T15:17:54;12.10;73.20
15676;DHT22;7938;47.666;9.434;2023-03-15T15:20:21;13.10;72.00
15676;DHT22;7938;47.666;9.434;2023-03-15T15:22:48;13.80;70.50
15676;DHT22;7938;47.666;9.434;2023-03-15T15:25:17;13.90;70.90
15676;DHT22;7938;47.666;9.434;2023-03-15T15:27:46;13.00;71.00
15676;DHT22;7938;47.666;9.434;2023-03-15T15:30:15;12.50;73.40
15676;DHT22;7938;47.666;9.434;2023-03-15T15:35:11;11.70;70.70
15676;DHT22;7938;47.666;9.434;2023-03-15T15:37:38;11.70;73.10
15676;DHT22;7938;47.666;9.434;2023-03-15T15:40:10;11.90;71.80
15676;DHT22;7938;47.666;9.434;2023-03-15T15:42:40;11.60;71.90
15676;DHT22;7938;47.666;9.434;2023-03-15T15:45:10;11.50;73.80
15676;DHT22;7938;47.666;9.434;2023-03-15T15:47:38;11.50;75.00
15676;DHT22;7938;47.666;9.434;2023-03-15T15:50:05;11.40;72.00
15676;DHT22;7938;47.666;9.434;2023-03-15T15:52:33;11.40;72.00
15676;DHT22;7938;47.666;9.434;2023-03-15T15:55:00;10.60;71.50
15676;DHT22;7938;47.666;9.434;2023-03-15T15:57:30;10.20;72.50
15676;DHT22;7938;47.666;9.434;2023-03-15T15:59:57;9.60;76.70
15676;DHT22;7938;47.666;9.434;2023-03-15T16:02:25;10.00;77.60
15676;DHT22;7938;47.666;9.434;2023-03-15T16:04:52;9.30;76.30
15676;DHT22;7938;47.666;9.434;2023-03-15T16:07:19;9.20;77.30
15676;DHT22;7938;47.666;9.434;2023-03-15T16:09:47;9.10;80.10
15676;DHT22;7938;47.666;9.434;2023-03-15T16:12:17;9.10;78.40
15676;DHT22;7938;47.666;9.434;2023-03-15T16:14:44;8.90;78.60
15676;DHT22;7938;47.666;9.434;2023-03-15T16:17:15;8.80;79.80
15676;DHT22;7938;47.666;9.434;2023-03-15T16:19:44;8.80;81.20
15676;DHT22;7938;47.666;9.434;2023-03-15T16:22:11;8.90;80.00
15676;DHT22;7938;47.666;9.434;2023-03-15T16:24:39;9.00;79.30
15676;DHT22;7938;47.666;9.434;2023-03-15T16:27:13;8.90;78.70
15676;DHT22;7938;47.666;9.434;2023-03-15T16:29:42;8.90;79.20
15676;DHT22;7938;47.666;9.434;2023-03-15T16:32:11;8.80;79.80
15676;DHT22;7938;47.666;9.434;2023-03-15T16:34:39;8.70;80.80
15676;DHT22;7938;47.666;9.434;2023-03-15T16:37:10;8.70;81.60
15676;DHT22;7938;47.666;9.434;2023-03-15T16:39:37;8.50;79.00
15676;DHT22;7938;47.666;9.434;2023-03-15T16:42:05;8.40;80.40
15676;DHT22;7938;47.666;9.434;2023-03-15T16:44:32;8.30;81.20
15676;DHT22;7938;47.666;9.434;2023-03-15T16:46:59;8.10;82.40
15676;DHT22;7938;47.666;9.434;2023-03-15T16:49:26;8.10;80.50
15676;DHT22;7938;47.666;9.434;2023-03-15T16:51:53;8.00;81.30
15676;DHT22;7938;47.666;9.434;2023-03-15T16:54:21;7.90;83.10
15676;DHT22;7938;47.666;9.434;2023-03-15T16:56:48;7.70;83.20
15676;DHT22;7938;47.666;9.434;2023-03-15T16:59:16;7.70;81.30
15676;DHT22;7938;47.666;9.434;2023-03-15T17:01:44;7.70;81.60
15676;DHT22;7938;47.666;9.434;2023-03-15T17:04:12;7.60;82.00
15676;DHT22;7938;47.666;9.434;2023-03-15T17:06:39;7.50;83.40
15676;DHT22;7938;47.666;9.434;2023-03-15T17:09:10;7.50;84.00
15676;DHT22;7938;47.666;9.434;2023-03-15T17:11:41;7.50;83.80
15676;DHT22;7938;47.666;9.434;2023-03-15T17:14:14;7.40;86.00
15676;DHT22;7938;47.666;9.434;2023-03-15T17:16:41;7.30;86.30
15676;DHT22;7938;47.666;9.434;2023-03-15T17:19:10;7.40;84.50
15676;DHT22;7938;47.666;9.434;2023-03-15T17:21:37;7.40;82.20
15676;DHT22;7938;47.666;9.434;2023-03-15T17:24:05;7.40;83.00
15676;DHT22;7938;47.666;9.434;2023-03-15T17:26:32;7.30;83.70
15676;DHT22;7938;47.666;9.434;2023-03-15T17:29:00;7.10;84.40
15676;DHT22;7938;47.666;9.434;2023-03-15T17:31:31;6.80;84.20
15676;DHT22;7938;47.666;9.434;2023-03-15T17:33:59;6.80;84.40
15676;DHT22;7938;47.666;9.434;2023-03-15T17:36:30;6.60;87.10
15676;DHT22;7938;47.666;9.434;2023-03-15T17:38:58;6.20;88.20
15676;DHT22;7938;47.666;9.434;2023-03-15T17:41:29;6.20;88.80
15676;DHT22;7938;47.666;9.434;2023-03-15T17:43:56;6.00;89.60
15676;DHT22;7938;47.666;9.434;2023-03-15T17:46:26;5.90;88.10
15676;DHT22;7938;47.666;9.434;2023-03-15T17:48:55;5.80;88.80
15676;DHT22;7938;47.666;9.434;2023-03-15T17:51:24;5.60;89.50
15676;DHT22;7938;47.666;9.434;2023-03-15T17:53:51;5.60;90.10
15676;DHT22;7938;47.666;9.434;2023-03-15T17:56:19;5.50;89.80
15676;DHT22;7938;47.666;9.434;2023-03-15T17:58:47;5.40;90.00
15676;DHT22;7938;47.666;9.434;2023-03-15T18:01:17;5.30;90.40
15676;DHT22;7938;47.666;9.434;2023-03-15T18:03:46;5.20;90.90
15676;DHT22;7938;47.666;9.434;2023-03-15T18:06:14;5.10;90.60
15676;DHT22;7938;47.666;9.434;2023-03-15T18:08:42;5.00;90.70
15676;DHT22;7938;47.666;9.434;2023-03-15T18:11:14;4.90;90.30
15676;DHT22;7938;47.666;9.434;2023-03-15T18:13:42;4.80;91.20
15676;DHT22;7938;47.666;9.434;2023-03-15T18:16:10;4.80;91.00
15676;DHT22;7938;47.666;9.434;2023-03-15T18:18:39;4.80;90.90
15676;DHT22;7938;47.666;9.434;2023-03-15T18:21:11;4.70;91.00
15676;DHT22;7938;47.666;9.434;2023-03-15T18:23:39;4.70;91.50
15676;DHT22;7938;47.666;9.434;2023-03-15T18:26:06;4.70;91.40
15676;DHT22;7938;47.666;9.434;2023-03-15T18:28:33;4.80;91.20
15676;DHT22;7938;47.666;9.434;2023-03-15T18:31:00;5.20;90.70
15676;DHT22;7938;47.666;9.434;2023-03-15T18:33:27;5.20;90.90
15676;DHT22;7938;47.666;9.434;2023-03-15T18:35:56;5.20;91.10
15676;DHT22;7938;47.666;9.434;2023-03-15T18:38:24;5.20;91.00
15676;DHT22;7938;47.666;9.434;2023-03-15T18:40:51;5.20;91.20
15676;DHT22;7938;47.666;9.434;2023-03-15T18:43:20;5.20;91.40
15676;DHT22;7938;47.666;9.434;2023-03-15T18:45:48;5.10;91.30
15676;DHT22;7938;47.666;9.434;2023-03-15T18:48:15;5.00;91.00
15676;DHT22;7938;47.666;9.434;2023-03-15T18:50:42;4.90;90.30
15676;DHT22;7938;47.666;9.434;2023-03-15T18:53:09;4.90;90.50
15676;DHT22;7938;47.666;9.434;2023-03-15T18:55:37;5.00;90.90
15676;DHT22;7938;47.666;9.434;2023-03-15T18:58:05;4.90;90.30
15676;DHT22;7938;47.666;9.434;2023-03-15T19:00:33;4.70;91.10
15676;DHT22;7938;47.666;9.434;2023-03-15T19:03:02;4.60;91.30
15676;DHT22;7938;47.666;9.434;2023-03-15T19:05:32;4.50;91.40
15676;DHT22;7938;47.666;9.434;2023-03-15T19:07:59;4.40;91.50
15676;DHT22;7938;47.666;9.434;2023-03-15T19:10:26;4.20;91.50
15676;DHT22;7938;47.666;9.434;2023-03-15T19:12:55;4.10;91.70
15676;DHT22;7938;47.666;9.434;2023-03-15T19:15:22;4.10;91.90
15676;DHT22;7938;47.666;9.434;2023-03-15T19:17:50;3.90;92.30
15676;DHT22;7938;47.666;9.434;2023-03-15T19:20:19;3.70;92.70
15676;DHT22;7938;47.666;9.434;2023-03-15T19:22:47;3.50;92.70
15676;DHT22;7938;47.666;9.434;2023-03-15T19:25:14;3.50;93.30
15676;DHT22;7938;47.666;9.434;2023-03-15T19:27:41;3.40;93.80
15676;DHT22;7938;47.666;9.434;2023-03-15T19:30:12;3.20;93.80
15676;DHT22;7938;47.666;9.434;2023-03-15T19:32:42;3.10;94.10
15676;DHT22;7938;47.666;9.434;2023-03-15T19:35:10;3.00;94.80
15676;DHT22;7938;47.666;9.434;2023-03-15T19:37:37;3.00;95.40
15676;DHT22;7938;47.666;9.434;2023-03-15T19:40:05;2.90;95.60
15676;DHT22;7938;47.666;9.434;2023-03-15T19:42:33;2.80;95.80
15676;DHT22;7938;47.666;9.434;2023-03-15T19:45:01;2.80;96.20
15676;DHT22;7938;47.666;9.434;2023-03-15T19:47:29;2.60;96.40
15676;DHT22;7938;47.666;9.434;2023-03-15T19:49:56;2.60;96.80
15676;DHT22;7938;47.666;9.434;2023-03-15T19:52:23;2.50;96.70
15676;DHT22;7938;47.666;9.434;2023-03-15T19:54:51;2.50;97.00
15676;DHT22;7938;47.666;9.434;2023-03-15T19:57:18;2.40;97.00
15676;DHT22;7938;47.666;9.434;2023-03-15T19:59:45;2.40;97.20
15676;DHT22;7938;47.666;9.434;2023-03-15T20:02:12;2.30;97.30
15676;DHT22;7938;47.666;9.434;2023-03-15T20:04:41;2.30;97.70
15676;DHT22;7938;47.666;9.434;2023-03-15T20:07:08;2.30;97.70
15676;DHT22;7938;47.666;9.434;2023-03-15T20:09:36;2.30;97.80
15676;DHT22;7938;47.666;9.434;2023-03-15T20:12:04;2.30;97.50
15676;DHT22;7938;47.666;9.434;2023-03-15T20:14:31;2.40;97.80
15676;DHT22;7938;47.666;9.434;2023-03-15T20:16:58;2.50;97.40
15676;DHT22;7938;47.666;9.434;2023-03-15T20:19:25;2.50;97.40
15676;DHT22;7938;47.666;9.434;2023-03-15T20:21:53;2.50;97.40
15676;DHT22;7938;47.666;9.434;2023-03-15T20:24:21;2.50;97.60
15676;DHT22;7938;47.666;9.434;2023-03-15T20:26:49;2.50;98.00
15676;DHT22;7938;47.666;9.434;2023-03-15T20:29:16;2.40;98.10
15676;DHT22;7938;47.666;9.434;2023-03-15T20:31:43;2.30;98.10
15676;DHT22;7938;47.666;9.434;2023-03-15T20:34:10;2.30;98.20
15676;DHT22;7938;47.666;9.434;2023-03-15T20:36:37;2.50;98.50
15676;DHT22;7938;47.666;9.434;2023-03-15T20:39:06;2.60;98.60
15676;DHT22;7938;47.666;9.434;2023-03-15T20:41:32;2.70;98.20
15676;DHT22;7938;47.666;9.434;2023-03-15T20:43:59;2.80;98.60
15676;DHT22;7938;47.666;9.434;2023-03-15T20:46:26;2.90;98.80
15676;DHT22;7938;47.666;9.434;2023-03-15T20:48:53;2.90;98.90
15676;DHT22;7938;47.666;9.434;2023-03-15T20:51:20;2.20;98.80
15676;DHT22;7938;47.666;9.434;2023-03-15T20:53:47;3.00;99.50
15676;DHT22;7938;47.666;9.434;2023-03-15T20:56:16;2.90;99.20
15676;DHT22;7938;47.666;9.434;2023-03-15T20:58:43;2.70;99.40
15676;DHT22;7938;47.666;9.434;2023-03-15T21:03:41;2.60;99.80
15676;DHT22;7938;47.666;9.434;2023-03-15T21:06:08;2.60;99.90
15676;DHT22;7938;47.666;9.434;2023-03-15T21:08:36;2.50;99.90
15676;DHT22;7938;47.666;9.434;2023-03-15T21:11:04;2.40;99.90
15676;DHT22;7938;47.666;9.434;2023-03-15T21:13:33;2.30;99.90
15676;DHT22;7938;47.666;9.434;2023-03-15T21:16:00;2.50;99.90
15676;DHT22;7938;47.666;9.434;2023-03-15T21:18:29;2.40;99.90
15676;DHT22;7938;47.666;9.434;2023-03-15T21:20:59;2.40;99.90
15676;DHT22;7938;47.666;9.434;2023-03-15T21:23:27;2.40;99.90